sensor_id;sensor_type;location;lat;lon;timestamp;P1;durP1;ratioP1;P2;durP2;ratioP2
68196;SDS011;55019;49.382;11.358;2023-07-02T00:00:27;1.40;;;0.90;;
68196;SDS011;55019;49.382;11.358;2023-07-02T00:02:53;1.50;;;0.70;;
68196;SDS011;55019;49.382;11.358;2023-07-02T00:05:19;0.65;;;0.60;;
68196;SDS011;55019;49.382;11.358;2023-07-02T00:07:45;1.08;;;0.57;;
68196;SDS011;55019;49.382;11.358;2023-07-02T00:10:10;1.10;;;0.70;;
68196;SDS011;55019;49.382;11.358;2023-07-02T00:12:36;1.60;;;0.80;;
68196;SDS011;55019;49.382;11.358;2023-07-02T00:15:02;1.20;;;0.90;;
68196;SDS011;55019;49.382;11.358;2023-07-02T00:17:29;1.15;;;0.70;;
68196;SDS011;55019;49.382;11.358;2023-07-02T00:19:55;1.35;;;0.98;;
68196;SDS011;55019;49.382;11.358;2023-07-02T00:22:21;1.33;;;0.82;;
68196;SDS011;55019;49.382;11.358;2023-07-02T00:24:47;1.65;;;0.82;;
68196;SDS011;55019;49.382;11.358;2023-07-02T00:27:13;0.80;;;0.65;;
68196;SDS011;55019;49.382;11.358;2023-07-02T00:29:39;1.48;;;1.02;;
68196;SDS011;55019;49.382;11.358;2023-07-02T00:32:05;1.45;;;1.00;;
68196;SDS011;55019;49.382;11.358;2023-07-02T00:34:31;0.98;;;0.75;;
68196;SDS011;55019;49.382;11.358;2023-07-02T00:36:56;1.27;;;1.00;;
68196;SDS011;55019;49.382;11.358;2023-07-02T00:39:22;1.55;;;0.90;;
68196;SDS011;55019;49.382;11.358;2023-07-02T00:41:48;1.10;;;0.98;;
68196;SDS011;55019;49.382;11.358;2023-07-02T00:44:13;1.48;;;1.10;;
68196;SDS011;55019;49.382;11.358;2023-07-02T00:46:39;1.48;;;1.20;;
68196;SDS011;55019;49.382;11.358;2023-07-02T00:49:05;2.38;;;1.38;;
68196;SDS011;55019;49.382;11.358;2023-07-02T00:51:33;1.40;;;1.30;;
68196;SDS011;55019;49.382;11.358;2023-07-02T00:56:26;2.05;;;0.98;;
68196;SDS011;55019;49.382;11.358;2023-07-02T00:58:55;2.03;;;1.08;;
68196;SDS011;55019;49.382;11.358;2023-07-02T01:01:24;1.48;;;1.13;;
68196;SDS011;55019;49.382;11.358;2023-07-02T01:03:57;2.08;;;1.08;;
68196;SDS011;55019;49.382;11.358;2023-07-02T01:06:28;1.98;;;1.15;;
68196;SDS011;55019;49.382;11.358;2023-07-02T01:08:59;2.40;;;1.33;;
68196;SDS011;55019;49.382;11.358;2023-07-02T01:14:05;1.70;;;1.20;;
68196;SDS011;55019;49.382;11.358;2023-07-02T01:16:43;1.48;;;1.15;;
68196;SDS011;55019;49.382;11.358;2023-07-02T01:19:55;1.40;;;1.00;;
68196;SDS011;55019;49.382;11.358;2023-07-02T01:21:59;1.90;;;1.30;;
68196;SDS011;55019;49.382;11.358;2023-07-02T01:24:26;1.10;;;0.90;;
68196;SDS011;55019;49.382;11.358;2023-07-02T01:26:52;1.55;;;1.30;;
68196;SDS011;55019;49.382;11.358;2023-07-02T01:29:19;1.98;;;1.33;;
68196;SDS011;55019;49.382;11.358;2023-07-02T01:31:46;2.03;;;1.38;;
68196;SDS011;55019;49.382;11.358;2023-07-02T01:34:13;2.67;;;1.40;;
68196;SDS011;55019;49.382;11.358;2023-07-02T01:36:39;1.85;;;1.10;;
68196;SDS011;55019;49.382;11.358;2023-07-02T01:39:05;1.65;;;1.23;;
68196;SDS011;55019;49.382;11.358;2023-07-02T01:41:37;2.22;;;1.48;;
68196;SDS011;55019;49.382;11.358;2023-07-02T01:44:08;1.15;;;1.02;;
68196;SDS011;55019;49.382;11.358;2023-07-02T01:46:34;1.95;;;1.45;;
68196;SDS011;55019;49.382;11.358;2023-07-02T01:48:59;1.88;;;1.30;;
68196;SDS011;55019;49.382;11.358;2023-07-02T01:51:25;1.35;;;1.00;;
68196;SDS011;55019;49.382;11.358;2023-07-02T01:53:51;1.55;;;1.15;;
68196;SDS011;55019;49.382;11.358;2023-07-02T01:56:16;1.60;;;1.05;;
68196;SDS011;55019;49.382;11.358;2023-07-02T01:58:43;1.60;;;1.45;;
68196;SDS011;55019;49.382;11.358;2023-07-02T02:01:09;1.48;;;1.13;;
68196;SDS011;55019;49.382;11.358;2023-07-02T02:03:35;1.45;;;0.98;;
68196;SDS011;55019;49.382;11.358;2023-07-02T02:06:00;2.10;;;1.25;;
68196;SDS011;55019;49.382;11.358;2023-07-02T02:08:26;1.88;;;1.10;;
68196;SDS011;55019;49.382;11.358;2023-07-02T02:10:52;1.45;;;1.25;;
68196;SDS011;55019;49.382;11.358;2023-07-02T02:13:17;1.55;;;1.10;;
68196;SDS011;55019;49.382;11.358;2023-07-02T02:15:43;1.60;;;1.10;;
68196;SDS011;55019;49.382;11.358;2023-07-02T02:18:09;2.13;;;1.23;;
68196;SDS011;55019;49.382;11.358;2023-07-02T02:20:34;2.10;;;1.42;;
68196;SDS011;55019;49.382;11.358;2023-07-02T02:23:00;1.83;;;1.30;;
68196;SDS011;55019;49.382;11.358;2023-07-02T02:25:26;1.65;;;1.35;;
68196;SDS011;55019;49.382;11.358;2023-07-02T02:27:51;1.40;;;1.27;;
68196;SDS011;55019;49.382;11.358;2023-07-02T02:30:17;1.50;;;1.20;;
68196;SDS011;55019;49.382;11.358;2023-07-02T02:32:43;1.90;;;1.30;;
68196;SDS011;55019;49.382;11.358;2023-07-02T02:35:10;1.48;;;1.13;;
68196;SDS011;55019;49.382;11.358;2023-07-02T02:37:37;1.95;;;1.30;;
68196;SDS011;55019;49.382;11.358;2023-07-02T02:40:06;1.88;;;1.42;;
68196;SDS011;55019;49.382;11.358;2023-07-02T02:42:35;2.80;;;1.35;;
68196;SDS011;55019;49.382;11.358;2023-07-02T02:45:02;1.35;;;1.23;;
68196;SDS011;55019;49.382;11.358;2023-07-02T02:47:28;1.95;;;1.20;;
68196;SDS011;55019;49.382;11.358;2023-07-02T02:49:55;2.15;;;1.33;;
68196;SDS011;55019;49.382;11.358;2023-07-02T02:52:20;1.60;;;1.10;;
68196;SDS011;55019;49.382;11.358;2023-07-02T02:54:46;2.92;;;1.38;;
68196;SDS011;55019;49.382;11.358;2023-07-02T02:57:12;2.30;;;1.20;;
68196;SDS011;55019;49.382;11.358;2023-07-02T02:59:38;1.33;;;1.20;;
68196;SDS011;55019;49.382;11.358;2023-07-02T03:02:05;1.80;;;1.33;;
68196;SDS011;55019;49.382;11.358;2023-07-02T03:04:31;1.55;;;1.23;;
68196;SDS011;55019;49.382;11.358;2023-07-02T03:06:57;1.80;;;1.02;;
68196;SDS011;55019;49.382;11.358;2023-07-02T03:09:22;1.20;;;0.93;;
68196;SDS011;55019;49.382;11.358;2023-07-02T03:11:48;1.67;;;1.20;;
68196;SDS011;55019;49.382;11.358;2023-07-02T03:14:14;1.55;;;1.17;;
68196;SDS011;55019;49.382;11.358;2023-07-02T03:16:41;2.63;;;1.23;;
68196;SDS011;55019;49.382;11.358;2023-07-02T03:19:07;2.13;;;1.40;;
68196;SDS011;55019;49.382;11.358;2023-07-02T03:21:33;2.08;;;1.13;;
68196;SDS011;55019;49.382;11.358;2023-07-02T03:23:59;2.08;;;1.23;;
68196;SDS011;55019;49.382;11.358;2023-07-02T03:26:24;1.48;;;1.13;;
68196;SDS011;55019;49.382;11.358;2023-07-02T03:28:50;1.67;;;1.27;;
68196;SDS011;55019;49.382;11.358;2023-07-02T03:31:16;1.67;;;1.30;;
68196;SDS011;55019;49.382;11.358;2023-07-02T03:33:41;2.03;;;1.42;;
68196;SDS011;55019;49.382;11.358;2023-07-02T03:36:07;3.33;;;1.50;;
68196;SDS011;55019;49.382;11.358;2023-07-02T03:38:33;2.60;;;1.17;;
68196;SDS011;55019;49.382;11.358;2023-07-02T03:40:58;1.88;;;1.05;;
68196;SDS011;55019;49.382;11.358;2023-07-02T03:43:24;3.75;;;1.10;;
68196;SDS011;55019;49.382;11.358;2023-07-02T03:45:51;1.38;;;1.27;;
68196;SDS011;55019;49.382;11.358;2023-07-02T03:48:21;1.30;;;1.00;;
68196;SDS011;55019;49.382;11.358;2023-07-02T03:50:46;2.15;;;0.95;;
68196;SDS011;55019;49.382;11.358;2023-07-02T03:53:12;3.58;;;1.17;;
68196;SDS011;55019;49.382;11.358;2023-07-02T03:55:38;1.50;;;1.02;;
68196;SDS011;55019;49.382;11.358;2023-07-02T03:58:04;2.05;;;1.60;;
68196;SDS011;55019;49.382;11.358;2023-07-02T04:00:30;4.07;;;1.52;;
68196;SDS011;55019;49.382;11.358;2023-07-02T04:02:55;2.20;;;1.17;;
68196;SDS011;55019;49.382;11.358;2023-07-02T04:05:22;2.47;;;1.30;;
68196;SDS011;55019;49.382;11.358;2023-07-02T04:07:47;1.35;;;1.00;;
68196;SDS011;55019;49.382;11.358;2023-07-02T04:10:13;1.42;;;0.90;;
68196;SDS011;55019;49.382;11.358;2023-07-02T04:12:39;2.22;;;0.90;;
68196;SDS011;55019;49.382;11.358;2023-07-02T04:15:04;1.35;;;0.90;;
68196;SDS011;55019;49.382;11.358;2023-07-02T04:17:31;1.65;;;1.13;;
68196;SDS011;55019;49.382;11.358;2023-07-02T04:19:56;1.65;;;0.93;;
68196;SDS011;55019;49.382;11.358;2023-07-02T04:22:22;3.00;;;1.20;;
68196;SDS011;55019;49.382;11.358;2023-07-02T04:24:48;1.85;;;1.10;;
68196;SDS011;55019;49.382;11.358;2023-07-02T04:27:17;1.45;;;0.85;;
68196;SDS011;55019;49.382;11.358;2023-07-02T04:29:43;1.67;;;1.00;;
68196;SDS011;55019;49.382;11.358;2023-07-02T04:32:09;1.63;;;0.85;;
68196;SDS011;55019;49.382;11.358;2023-07-02T04:34:35;2.90;;;1.05;;
68196;SDS011;55019;49.382;11.358;2023-07-02T04:37:02;1.35;;;0.93;;
68196;SDS011;55019;49.382;11.358;2023-07-02T04:39:31;1.23;;;0.90;;
68196;SDS011;55019;49.382;11.358;2023-07-02T04:41:56;3.20;;;1.33;;
68196;SDS011;55019;49.382;11.358;2023-07-02T04:44:22;2.20;;;1.00;;
68196;SDS011;55019;49.382;11.358;2023-07-02T04:47:00;0.90;;;0.60;;
68196;SDS011;55019;49.382;11.358;2023-07-02T04:49:27;1.00;;;0.80;;
68196;SDS011;55019;49.382;11.358;2023-07-02T04:51:53;1.88;;;1.23;;
68196;SDS011;55019;49.382;11.358;2023-07-02T04:54:20;1.40;;;0.90;;
68196;SDS011;55019;49.382;11.358;2023-07-02T04:56:46;2.33;;;0.90;;
68196;SDS011;55019;49.382;11.358;2023-07-02T04:59:13;2.30;;;0.98;;
68196;SDS011;55019;49.382;11.358;2023-07-02T05:01:40;1.27;;;1.08;;
68196;SDS011;55019;49.382;11.358;2023-07-02T05:04:05;2.33;;;1.15;;
68196;SDS011;55019;49.382;11.358;2023-07-02T05:06:31;1.95;;;1.25;;
68196;SDS011;55019;49.382;11.358;2023-07-02T05:08:57;1.33;;;0.98;;
68196;SDS011;55019;49.382;11.358;2023-07-02T05:11:22;2.47;;;0.90;;
68196;SDS011;55019;49.382;11.358;2023-07-02T05:13:48;2.25;;;0.82;;
68196;SDS011;55019;49.382;11.358;2023-07-02T05:16:14;2.58;;;1.02;;
68196;SDS011;55019;49.382;11.358;2023-07-02T05:18:40;4.28;;;0.85;;
68196;SDS011;55019;49.382;11.358;2023-07-02T05:21:06;1.45;;;0.95;;
68196;SDS011;55019;49.382;11.358;2023-07-02T05:23:32;1.80;;;1.00;;
68196;SDS011;55019;49.382;11.358;2023-07-02T05:25:57;3.05;;;1.27;;
68196;SDS011;55019;49.382;11.358;2023-07-02T05:28:24;3.58;;;1.00;;
68196;SDS011;55019;49.382;11.358;2023-07-02T05:30:50;1.75;;;1.00;;
68196;SDS011;55019;49.382;11.358;2023-07-02T05:33:16;1.70;;;0.95;;
68196;SDS011;55019;49.382;11.358;2023-07-02T05:35:41;2.63;;;1.20;;
68196;SDS011;55019;49.382;11.358;2023-07-02T05:38:07;3.08;;;1.38;;
68196;SDS011;55019;49.382;11.358;2023-07-02T05:40:33;2.60;;;1.02;;
68196;SDS011;55019;49.382;11.358;2023-07-02T05:42:58;1.50;;;0.93;;
68196;SDS011;55019;49.382;11.358;2023-07-02T05:45:24;2.13;;;1.20;;
68196;SDS011;55019;49.382;11.358;2023-07-02T05:47:50;2.63;;;0.98;;
68196;SDS011;55019;49.382;11.358;2023-07-02T05:50:15;2.33;;;0.90;;
68196;SDS011;55019;49.382;11.358;2023-07-02T05:52:41;1.08;;;0.98;;
68196;SDS011;55019;49.382;11.358;2023-07-02T05:55:07;1.70;;;0.93;;
68196;SDS011;55019;49.382;11.358;2023-07-02T05:57:36;1.92;;;0.85;;
68196;SDS011;55019;49.382;11.358;2023-07-02T06:00:04;3.75;;;1.00;;
68196;SDS011;55019;49.382;11.358;2023-07-02T06:02:37;1.85;;;1.17;;
68196;SDS011;55019;49.382;11.358;2023-07-02T06:05:03;1.33;;;0.82;;
68196;SDS011;55019;49.382;11.358;2023-07-02T06:07:30;2.00;;;0.88;;
68196;SDS011;55019;49.382;11.358;2023-07-02T06:09:55;1.98;;;1.00;;
68196;SDS011;55019;49.382;11.358;2023-07-02T06:12:21;2.47;;;1.00;;
68196;SDS011;55019;49.382;11.358;2023-07-02T06:14:47;1.50;;;0.98;;
68196;SDS011;55019;49.382;11.358;2023-07-02T06:17:13;3.10;;;1.20;;
68196;SDS011;55019;49.382;11.358;2023-07-02T06:19:40;4.75;;;1.50;;
68196;SDS011;55019;49.382;11.358;2023-07-02T06:22:06;2.25;;;1.30;;
68196;SDS011;55019;49.382;11.358;2023-07-02T06:24:32;2.42;;;1.60;;
68196;SDS011;55019;49.382;11.358;2023-07-02T06:26:58;3.78;;;1.30;;
68196;SDS011;55019;49.382;11.358;2023-07-02T06:29:24;2.92;;;1.50;;
68196;SDS011;55019;49.382;11.358;2023-07-02T06:31:50;4.53;;;1.98;;
68196;SDS011;55019;49.382;11.358;2023-07-02T06:34:16;3.50;;;1.75;;
68196;SDS011;55019;49.382;11.358;2023-07-02T06:36:42;4.53;;;2.10;;
68196;SDS011;55019;49.382;11.358;2023-07-02T06:39:13;4.47;;;2.05;;
68196;SDS011;55019;49.382;11.358;2023-07-02T06:41:39;4.70;;;2.38;;
68196;SDS011;55019;49.382;11.358;2023-07-02T06:44:05;5.43;;;2.50;;
68196;SDS011;55019;49.382;11.358;2023-07-02T06:46:30;4.22;;;2.22;;
68196;SDS011;55019;49.382;11.358;2023-07-02T06:48:56;6.70;;;3.33;;
68196;SDS011;55019;49.382;11.358;2023-07-02T06:51:22;6.72;;;2.70;;
68196;SDS011;55019;49.382;11.358;2023-07-02T06:53:48;5.57;;;2.83;;
68196;SDS011;55019;49.382;11.358;2023-07-02T06:56:13;5.32;;;3.20;;
68196;SDS011;55019;49.382;11.358;2023-07-02T06:58:42;6.88;;;2.92;;
68196;SDS011;55019;49.382;11.358;2023-07-02T07:01:09;7.15;;;2.95;;
68196;SDS011;55019;49.382;11.358;2023-07-02T07:03:35;5.82;;;2.80;;
68196;SDS011;55019;49.382;11.358;2023-07-02T07:06:01;6.10;;;3.45;;
68196;SDS011;55019;49.382;11.358;2023-07-02T07:08:27;5.00;;;2.88;;
68196;SDS011;55019;49.382;11.358;2023-07-02T07:10:53;7.50;;;2.92;;
68196;SDS011;55019;49.382;11.358;2023-07-02T07:13:19;5.90;;;2.90;;
68196;SDS011;55019;49.382;11.358;2023-07-02T07:15:45;6.03;;;2.97;;
68196;SDS011;55019;49.382;11.358;2023-07-02T07:18:11;5.57;;;3.30;;
68196;SDS011;55019;49.382;11.358;2023-07-02T07:20:36;9.95;;;3.45;;
68196;SDS011;55019;49.382;11.358;2023-07-02T07:23:04;8.02;;;3.25;;
68196;SDS011;55019;49.382;11.358;2023-07-02T07:25:30;7.07;;;3.10;;
68196;SDS011;55019;49.382;11.358;2023-07-02T07:27:57;5.95;;;3.38;;
68196;SDS011;55019;49.382;11.358;2023-07-02T07:30:24;7.50;;;3.50;;
68196;SDS011;55019;49.382;11.358;2023-07-02T07:32:51;7.22;;;3.30;;
68196;SDS011;55019;49.382;11.358;2023-07-02T07:35:20;5.22;;;3.10;;
68196;SDS011;55019;49.382;11.358;2023-07-02T07:37:47;8.20;;;3.90;;
68196;SDS011;55019;49.382;11.358;2023-07-02T07:40:13;8.02;;;3.53;;
68196;SDS011;55019;49.382;11.358;2023-07-02T07:42:39;7.68;;;3.60;;
68196;SDS011;55019;49.382;11.358;2023-07-02T07:45:06;8.65;;;3.65;;
68196;SDS011;55019;49.382;11.358;2023-07-02T07:47:32;7.53;;;3.60;;
68196;SDS011;55019;49.382;11.358;2023-07-02T07:49:58;7.00;;;3.25;;
68196;SDS011;55019;49.382;11.358;2023-07-02T07:52:24;6.32;;;3.70;;
68196;SDS011;55019;49.382;11.358;2023-07-02T07:54:49;11.23;;;4.43;;
68196;SDS011;55019;49.382;11.358;2023-07-02T07:57:15;7.00;;;3.70;;
68196;SDS011;55019;49.382;11.358;2023-07-02T07:59:41;7.07;;;3.80;;
68196;SDS011;55019;49.382;11.358;2023-07-02T08:02:06;8.20;;;3.72;;
68196;SDS011;55019;49.382;11.358;2023-07-02T08:04:32;8.48;;;4.25;;
68196;SDS011;55019;49.382;11.358;2023-07-02T08:06:58;6.07;;;3.50;;
68196;SDS011;55019;49.382;11.358;2023-07-02T08:09:23;9.88;;;3.45;;
68196;SDS011;55019;49.382;11.358;2023-07-02T08:11:50;10.25;;;3.72;;
68196;SDS011;55019;49.382;11.358;2023-07-02T08:14:16;8.98;;;4.05;;
68196;SDS011;55019;49.382;11.358;2023-07-02T08:16:45;8.90;;;4.18;;
68196;SDS011;55019;49.382;11.358;2023-07-02T08:19:11;10.88;;;4.25;;
68196;SDS011;55019;49.382;11.358;2023-07-02T08:21:36;8.70;;;3.85;;
68196;SDS011;55019;49.382;11.358;2023-07-02T08:24:02;6.70;;;3.72;;
68196;SDS011;55019;49.382;11.358;2023-07-02T08:26:29;7.65;;;3.83;;
68196;SDS011;55019;49.382;11.358;2023-07-02T08:28:55;6.88;;;3.25;;
68196;SDS011;55019;49.382;11.358;2023-07-02T08:31:20;8.60;;;4.13;;
68196;SDS011;55019;49.382;11.358;2023-07-02T08:33:46;7.40;;;3.88;;
68196;SDS011;55019;49.382;11.358;2023-07-02T08:36:12;7.18;;;3.83;;
68196;SDS011;55019;49.382;11.358;2023-07-02T08:41:07;8.77;;;3.67;;
68196;SDS011;55019;49.382;11.358;2023-07-02T08:43:33;8.25;;;3.88;;
68196;SDS011;55019;49.382;11.358;2023-07-02T08:46:01;8.73;;;4.20;;
68196;SDS011;55019;49.382;11.358;2023-07-02T08:48:27;10.23;;;4.45;;
68196;SDS011;55019;49.382;11.358;2023-07-02T08:50:57;7.18;;;3.58;;
68196;SDS011;55019;49.382;11.358;2023-07-02T08:53:23;7.07;;;4.28;;
68196;SDS011;55019;49.382;11.358;2023-07-02T08:55:55;6.05;;;3.40;;
68196;SDS011;55019;49.382;11.358;2023-07-02T08:58:21;6.63;;;3.38;;
68196;SDS011;55019;49.382;11.358;2023-07-02T09:03:34;5.93;;;3.05;;
68196;SDS011;55019;49.382;11.358;2023-07-02T09:06:08;5.60;;;2.83;;
68196;SDS011;55019;49.382;11.358;2023-07-02T09:08:35;5.97;;;3.00;;
68196;SDS011;55019;49.382;11.358;2023-07-02T09:11:08;4.43;;;2.45;;
68196;SDS011;55019;49.382;11.358;2023-07-02T09:16:24;5.18;;;2.08;;
68196;SDS011;55019;49.382;11.358;2023-07-02T09:19:03;4.35;;;2.58;;
68196;SDS011;55019;49.382;11.358;2023-07-02T09:21:44;3.95;;;2.67;;
68196;SDS011;55019;49.382;11.358;2023-07-02T09:26:46;4.30;;;2.80;;
68196;SDS011;55019;49.382;11.358;2023-07-02T09:29:18;4.90;;;2.42;;
68196;SDS011;55019;49.382;11.358;2023-07-02T09:31:47;4.50;;;2.75;;
68196;SDS011;55019;49.382;11.358;2023-07-02T09:34:13;4.15;;;2.60;;
68196;SDS011;55019;49.382;11.358;2023-07-02T09:36:40;6.43;;;2.72;;
68196;SDS011;55019;49.382;11.358;2023-07-02T09:39:11;3.22;;;2.05;;
68196;SDS011;55019;49.382;11.358;2023-07-02T09:41:38;4.47;;;2.33;;
68196;SDS011;55019;49.382;11.358;2023-07-02T09:44:07;4.65;;;3.03;;
68196;SDS011;55019;49.382;11.358;2023-07-02T09:46:34;4.35;;;2.65;;
68196;SDS011;55019;49.382;11.358;2023-07-02T09:49:03;4.65;;;2.45;;
68196;SDS011;55019;49.382;11.358;2023-07-02T09:51:31;4.57;;;2.60;;
68196;SDS011;55019;49.382;11.358;2023-07-02T09:53:58;4.25;;;2.28;;
68196;SDS011;55019;49.382;11.358;2023-07-02T09:56:23;4.20;;;2.03;;
68196;SDS011;55019;49.382;11.358;2023-07-02T09:58:49;5.05;;;2.20;;
68196;SDS011;55019;49.382;11.358;2023-07-02T10:01:15;3.45;;;2.17;;
68196;SDS011;55019;49.382;11.358;2023-07-02T10:03:41;4.00;;;2.03;;
68196;SDS011;55019;49.382;11.358;2023-07-02T10:06:06;3.55;;;2.00;;
68196;SDS011;55019;49.382;11.358;2023-07-02T10:08:32;4.40;;;2.40;;
68196;SDS011;55019;49.382;11.358;2023-07-02T10:11:58;3.15;;;2.00;;
68196;SDS011;55019;49.382;11.358;2023-07-02T10:14:00;3.50;;;1.95;;
68196;SDS011;55019;49.382;11.358;2023-07-02T10:16:26;3.53;;;2.08;;
68196;SDS011;55019;49.382;11.358;2023-07-02T10:18:53;2.15;;;1.55;;
68196;SDS011;55019;49.382;11.358;2023-07-02T10:21:19;2.70;;;1.77;;
68196;SDS011;55019;49.382;11.358;2023-07-02T10:23:45;4.93;;;1.83;;
68196;SDS011;55019;49.382;11.358;2023-07-02T10:26:13;3.35;;;2.15;;
68196;SDS011;55019;49.382;11.358;2023-07-02T10:28:40;3.80;;;1.90;;
68196;SDS011;55019;49.382;11.358;2023-07-02T10:31:21;3.03;;;1.98;;
68196;SDS011;55019;49.382;11.358;2023-07-02T10:33:47;4.22;;;2.42;;
68196;SDS011;55019;49.382;11.358;2023-07-02T10:36:25;3.25;;;2.20;;
68196;SDS011;55019;49.382;11.358;2023-07-02T10:38:51;2.78;;;1.88;;
68196;SDS011;55019;49.382;11.358;2023-07-02T10:41:23;4.40;;;1.77;;
68196;SDS011;55019;49.382;11.358;2023-07-02T10:43:54;4.70;;;2.10;;
68196;SDS011;55019;49.382;11.358;2023-07-02T10:46:20;2.38;;;1.83;;
68196;SDS011;55019;49.382;11.358;2023-07-02T10:48:52;3.70;;;2.25;;
68196;SDS011;55019;49.382;11.358;2023-07-02T10:51:21;2.85;;;1.85;;
68196;SDS011;55019;49.382;11.358;2023-07-02T10:53:56;2.78;;;1.88;;
68196;SDS011;55019;49.382;11.358;2023-07-02T10:56:24;3.47;;;2.10;;
68196;SDS011;55019;49.382;11.358;2023-07-02T11:03:59;5.93;;;2.40;;
68196;SDS011;55019;49.382;11.358;2023-07-02T11:06:26;3.67;;;2.22;;
68196;SDS011;55019;49.382;11.358;2023-07-02T11:11:20;2.85;;;2.00;;
68196;SDS011;55019;49.382;11.358;2023-07-02T11:13:48;3.70;;;1.98;;
68196;SDS011;55019;49.382;11.358;2023-07-02T11:16:24;3.55;;;2.13;;
68196;SDS011;55019;49.382;11.358;2023-07-02T11:18:52;4.65;;;2.20;;
68196;SDS011;55019;49.382;11.358;2023-07-02T11:21:19;3.95;;;2.35;;
68196;SDS011;55019;49.382;11.358;2023-07-02T11:23:44;5.10;;;2.50;;
68196;SDS011;55019;49.382;11.358;2023-07-02T11:26:10;4.25;;;2.42;;
68196;SDS011;55019;49.382;11.358;2023-07-02T11:28:36;3.28;;;2.25;;
68196;SDS011;55019;49.382;11.358;2023-07-02T11:31:13;3.00;;;2.33;;
68196;SDS011;55019;49.382;11.358;2023-07-02T11:33:39;5.50;;;2.25;;
68196;SDS011;55019;49.382;11.358;2023-07-02T11:36:05;3.85;;;2.42;;
68196;SDS011;55019;49.382;11.358;2023-07-02T11:41:04;4.18;;;2.47;;
68196;SDS011;55019;49.382;11.358;2023-07-02T11:43:30;4.90;;;2.47;;
68196;SDS011;55019;49.382;11.358;2023-07-02T11:45:56;5.32;;;2.97;;
68196;SDS011;55019;49.382;11.358;2023-07-02T11:48:22;4.20;;;2.47;;
68196;SDS011;55019;49.382;11.358;2023-07-02T11:50:48;5.13;;;2.83;;
68196;SDS011;55019;49.382;11.358;2023-07-02T11:53:13;7.43;;;3.22;;
68196;SDS011;55019;49.382;11.358;2023-07-02T11:55:39;5.15;;;3.25;;
68196;SDS011;55019;49.382;11.358;2023-07-02T11:58:04;5.55;;;3.80;;
68196;SDS011;55019;49.382;11.358;2023-07-02T12:00:30;8.70;;;3.90;;
68196;SDS011;55019;49.382;11.358;2023-07-02T12:02:56;6.93;;;4.05;;
68196;SDS011;55019;49.382;11.358;2023-07-02T12:05:21;6.75;;;3.92;;
68196;SDS011;55019;49.382;11.358;2023-07-02T12:07:47;8.30;;;4.50;;
68196;SDS011;55019;49.382;11.358;2023-07-02T12:10:13;7.68;;;5.03;;
68196;SDS011;55019;49.382;11.358;2023-07-02T12:12:38;7.75;;;5.30;;
68196;SDS011;55019;49.382;11.358;2023-07-02T12:15:04;12.63;;;5.07;;
68196;SDS011;55019;49.382;11.358;2023-07-02T12:17:30;9.55;;;5.30;;
68196;SDS011;55019;49.382;11.358;2023-07-02T12:19:56;10.45;;;5.63;;
68196;SDS011;55019;49.382;11.358;2023-07-02T12:22:22;8.70;;;5.00;;
68196;SDS011;55019;49.382;11.358;2023-07-02T12:24:48;9.20;;;5.18;;
68196;SDS011;55019;49.382;11.358;2023-07-02T12:27:16;10.40;;;5.03;;
68196;SDS011;55019;49.382;11.358;2023-07-02T12:29:42;11.93;;;5.32;;
68196;SDS011;55019;49.382;11.358;2023-07-02T12:32:07;8.18;;;5.10;;
68196;SDS011;55019;49.382;11.358;2023-07-02T12:34:33;9.05;;;4.88;;
68196;SDS011;55019;49.382;11.358;2023-07-02T12:36:59;10.10;;;5.32;;
68196;SDS011;55019;49.382;11.358;2023-07-02T12:39:24;8.77;;;4.88;;
68196;SDS011;55019;49.382;11.358;2023-07-02T12:41:50;10.18;;;5.45;;
68196;SDS011;55019;49.382;11.358;2023-07-02T12:44:16;9.07;;;5.10;;
68196;SDS011;55019;49.382;11.358;2023-07-02T12:46:41;10.85;;;5.90;;
68196;SDS011;55019;49.382;11.358;2023-07-02T12:49:07;9.45;;;5.45;;
68196;SDS011;55019;49.382;11.358;2023-07-02T12:51:33;10.25;;;5.93;;
68196;SDS011;55019;49.382;11.358;2023-07-02T12:53:58;11.63;;;5.55;;
68196;SDS011;55019;49.382;11.358;2023-07-02T12:56:24;9.80;;;6.05;;
68196;SDS011;55019;49.382;11.358;2023-07-02T12:58:50;10.73;;;5.57;;
68196;SDS011;55019;49.382;11.358;2023-07-02T13:01:17;10.88;;;5.78;;
68196;SDS011;55019;49.382;11.358;2023-07-02T13:03:46;10.68;;;5.45;;
68196;SDS011;55019;49.382;11.358;2023-07-02T13:06:13;12.23;;;5.55;;
68196;SDS011;55019;49.382;11.358;2023-07-02T13:08:39;9.60;;;5.55;;
68196;SDS011;55019;49.382;11.358;2023-07-02T13:11:04;8.20;;;4.80;;
68196;SDS011;55019;49.382;11.358;2023-07-02T13:13:30;13.20;;;5.85;;
68196;SDS011;55019;49.382;11.358;2023-07-02T13:15:56;10.30;;;5.55;;
68196;SDS011;55019;49.382;11.358;2023-07-02T13:18:23;8.57;;;5.30;;
68196;SDS011;55019;49.382;11.358;2023-07-02T13:20:48;8.52;;;5.05;;
68196;SDS011;55019;49.382;11.358;2023-07-02T13:23:14;9.98;;;5.55;;
68196;SDS011;55019;49.382;11.358;2023-07-02T13:25:40;9.18;;;5.35;;
68196;SDS011;55019;49.382;11.358;2023-07-02T13:28:05;13.50;;;5.70;;
68196;SDS011;55019;49.382;11.358;2023-07-02T13:30:31;10.50;;;5.60;;
68196;SDS011;55019;49.382;11.358;2023-07-02T13:32:57;10.48;;;6.00;;
68196;SDS011;55019;49.382;11.358;2023-07-02T13:35:22;10.63;;;5.80;;
68196;SDS011;55019;49.382;11.358;2023-07-02T13:37:48;9.30;;;5.10;;
68196;SDS011;55019;49.382;11.358;2023-07-02T13:40:14;9.30;;;5.30;;
68196;SDS011;55019;49.382;11.358;2023-07-02T13:42:40;10.45;;;6.07;;
68196;SDS011;55019;49.382;11.358;2023-07-02T13:45:08;12.15;;;5.80;;
68196;SDS011;55019;49.382;11.358;2023-07-02T13:47:35;12.05;;;6.55;;
68196;SDS011;55019;49.382;11.358;2023-07-02T13:50:01;8.60;;;5.57;;
68196;SDS011;55019;49.382;11.358;2023-07-02T13:52:27;12.40;;;5.85;;
68196;SDS011;55019;49.382;11.358;2023-07-02T13:54:53;9.80;;;5.95;;
68196;SDS011;55019;49.382;11.358;2023-07-02T13:57:18;12.93;;;6.15;;
68196;SDS011;55019;49.382;11.358;2023-07-02T13:59:44;12.25;;;6.45;;
68196;SDS011;55019;49.382;11.358;2023-07-02T14:02:10;10.45;;;5.68;;
68196;SDS011;55019;49.382;11.358;2023-07-02T14:04:35;11.23;;;5.85;;
68196;SDS011;55019;49.382;11.358;2023-07-02T14:07:02;11.25;;;6.57;;
68196;SDS011;55019;49.382;11.358;2023-07-02T14:09:29;12.38;;;5.60;;
68196;SDS011;55019;49.382;11.358;2023-07-02T14:11:54;8.93;;;5.82;;
68196;SDS011;55019;49.382;11.358;2023-07-02T14:14:20;11.05;;;5.97;;
68196;SDS011;55019;49.382;11.358;2023-07-02T14:16:45;12.18;;;6.70;;
68196;SDS011;55019;49.382;11.358;2023-07-02T14:19:11;12.23;;;6.72;;
68196;SDS011;55019;49.382;11.358;2023-07-02T14:21:37;10.95;;;6.13;;
68196;SDS011;55019;49.382;11.358;2023-07-02T14:24:03;10.73;;;6.35;;
68196;SDS011;55019;49.382;11.358;2023-07-02T14:26:30;11.45;;;6.32;;
68196;SDS011;55019;49.382;11.358;2023-07-02T14:28:57;12.55;;;6.70;;
68196;SDS011;55019;49.382;11.358;2023-07-02T14:31:23;9.82;;;5.95;;
68196;SDS011;55019;49.382;11.358;2023-07-02T14:33:49;10.98;;;6.47;;
68196;SDS011;55019;49.382;11.358;2023-07-02T14:36:15;12.00;;;6.50;;
68196;SDS011;55019;49.382;11.358;2023-07-02T14:38:41;12.88;;;6.43;;
68196;SDS011;55019;49.382;11.358;2023-07-02T14:41:07;13.02;;;6.72;;
68196;SDS011;55019;49.382;11.358;2023-07-02T14:43:33;11.50;;;6.55;;
68196;SDS011;55019;49.382;11.358;2023-07-02T14:45:59;11.43;;;6.82;;
68196;SDS011;55019;49.382;11.358;2023-07-02T14:48:27;11.88;;;6.68;;
68196;SDS011;55019;49.382;11.358;2023-07-02T14:50:56;10.50;;;6.07;;
68196;SDS011;55019;49.382;11.358;2023-07-02T14:53:24;13.48;;;6.03;;
68196;SDS011;55019;49.382;11.358;2023-07-02T14:55:53;14.45;;;7.18;;